Time;durP1;ratioP1;P1;durP2;ratioP2;P2;SDS_P1;SDS_P2;PMS_P1;PMS_P2;Temp;Humidity;BMP_temperature;BMP_pressure;BME280_temperature;BME280_humidity;BME280_pressure;Samples;Min_cycle;Max_cycle;Signal;HPM_P1;HPM_P2
2023/01/23 00:03:00;;;;;;;56.03;17.07;;;;;2.00;97354.00;;;;8465185;28;20220;-75
2023/01/23 00:07:05;;;;;;;57.33;17.30;;;;;2.00;97368.00;;;;8464810;28;20641;-75
2023/01/23 00:11:11;;;;;;;59.17;19.57;;;;;2.00;97365.00;;;;8455131;28;20203;-73
2023/01/23 00:15:15;;;;;;;59.57;18.33;;;;;2.00;97371.00;;;;8461487;28;20196;-74
2023/01/23 00:19:19;;;;;;;54.63;18.57;;;;;2.10;97378.00;;;;8463418;28;20188;-74
2023/01/23 00:23:25;;;;;;;53.63;17.00;;;;;2.00;97387.00;;;;8464281;28;20192;-74
2023/01/23 00:27:28;;;;;;;55.83;17.53;;;;;2.00;97378.00;;;;8464248;28;20223;-74
2023/01/23 00:31:33;;;;;;;59.03;17.30;;;;;2.00;97379.00;;;;8462677;28;20198;-74
2023/01/23 00:35:42;;;;;;;52.50;17.33;;;;;2.00;97369.00;;;;8464892;28;20196;-74
2023/01/23 00:39:46;;;;;;;51.10;16.47;;;;;2.00;97371.00;;;;8462084;28;20196;-74
2023/01/23 00:43:51;;;;;;;48.00;16.60;;;;;2.00;97357.00;;;;8465106;28;20205;-75
2023/01/23 00:47:55;;;;;;;45.83;16.33;;;;;2.00;97364.00;;;;8445477;28;20215;-74
2023/01/23 00:52:02;;;;;;;43.67;15.30;;;;;1.90;97376.00;;;;8463884;28;20204;-74
2023/01/23 00:56:08;;;;;;;44.60;15.23;;;;;1.90;97371.00;;;;8463551;28;20230;-75
2023/01/23 01:00:15;;;;;;;39.83;14.40;;;;;1.90;97368.00;;;;8463624;28;20208;-74
2023/01/23 01:04:18;;;;;;;39.20;14.87;;;;;1.90;97373.00;;;;8456964;28;20671;-75
2023/01/23 01:08:22;;;;;;;39.50;15.77;;;;;1.90;97377.00;;;;8469342;28;20259;-75
2023/01/23 01:12:25;;;;;;;37.17;13.87;;;;;1.80;97381.00;;;;8470322;28;20208;-75
2023/01/23 01:16:50;;;;;;;37.40;13.87;;;;;1.80;97385.00;;;;8466354;28;20244;-73
2023/01/23 01:20:58;;;;;;;29.67;12.73;;;;;1.80;97391.00;;;;8470044;28;20199;-75
2023/01/23 01:25:06;;;;;;;33.33;12.77;;;;;1.80;97390.00;;;;8469481;28;20200;-75
2023/01/23 01:29:09;;;;;;;34.73;13.27;;;;;1.80;97405.00;;;;8468736;28;20216;-76
2023/01/23 01:33:17;;;;;;;35.87;13.33;;;;;1.80;97410.00;;;;8470038;28;20253;-76
2023/01/23 01:37:22;;;;;;;35.40;12.67;;;;;1.80;97398.00;;;;8469192;28;20206;-76
2023/01/23 01:41:26;;;;;;;35.33;13.00;;;;;1.80;97405.00;;;;8469395;28;20200;-76
2023/01/23 01:46:10;;;;;;;35.20;12.20;;;;;1.80;97393.00;;;;8468589;28;20527;-76
2023/01/23 01:50:13;;;;;;;30.83;11.83;;;;;1.70;97393.00;;;;8468552;28;20219;-76
2023/01/23 01:54:24;;;;;;;27.77;11.40;;;;;1.70;97399.00;;;;8467171;28;20200;-77
2023/01/23 01:58:34;;;;;;;28.73;10.80;;;;;1.60;97392.00;;;;8468620;28;20524;-75
2023/01/23 02:02:43;;;;;;;25.37;10.57;;;;;1.60;97395.00;;;;8468945;28;20674;-75
2023/01/23 02:06:47;;;;;;;31.33;12.40;;;;;1.60;97383.00;;;;8467949;28;20193;-75
2023/01/23 02:10:51;;;;;;;31.80;12.23;;;;;1.60;97389.00;;;;8468091;28;20211;-76
2023/01/23 02:14:56;;;;;;;30.63;11.93;;;;;1.60;97390.00;;;;8466980;28;20192;-76
2023/01/23 02:19:04;;;;;;;30.43;12.07;;;;;1.60;97387.00;;;;8468405;28;20622;-76
2023/01/23 02:23:14;;;;;;;31.00;11.77;;;;;1.60;97397.00;;;;8467634;28;20529;-76
2023/01/23 02:27:21;;;;;;;30.47;11.80;;;;;1.60;97400.00;;;;8467122;28;20206;-77
2023/01/23 02:31:26;;;;;;;32.33;12.33;;;;;1.60;97391.00;;;;8467702;28;20215;-77
2023/01/23 02:35:34;;;;;;;33.63;12.93;;;;;1.50;97387.00;;;;8467190;28;20192;-76
2023/01/23 02:39:39;;;;;;;34.80;13.03;;;;;1.60;97379.00;;;;8467471;28;20241;-76
2023/01/23 02:43:44;;;;;;;33.87;13.97;;;;;1.50;97385.00;;;;8467311;28;20183;-78
2023/01/23 02:47:47;;;;;;;32.13;13.93;;;;;1.40;97390.00;;;;8465910;28;20198;-78
2023/01/23 02:51:51;;;;;;;36.00;15.37;;;;;1.40;97388.00;;;;8464842;28;20245;-78
2023/01/23 02:55:59;;;;;;;43.40;16.57;;;;;1.40;97394.00;;;;8466455;28;20193;-77
2023/01/23 03:04:33;;;;;;;35.37;14.77;;;;;1.30;97386.00;;;;8323148;23;20716;-74
2023/01/23 03:08:46;;;;;;;21.10;9.43;;;;;1.30;97378.00;;;;8348132;28;20260;-76
2023/01/23 03:12:52;;;;;;;40.33;13.63;;;;;1.30;97383.00;;;;8350124;28;20200;-76
2023/01/23 03:16:58;;;;;;;37.70;14.77;;;;;1.30;97384.00;;;;8355711;28;20658;-74
2023/01/23 03:21:05;;;;;;;37.13;15.50;;;;;1.40;97387.00;;;;8331468;28;20197;-74
2023/01/23 03:25:09;;;;;;;35.30;15.13;;;;;1.30;97379.00;;;;8348699;28;20228;-77
2023/01/23 03:33:42;;;;;;;30.53;13.37;;;;;1.20;97383.00;;;;8349874;28;20196;-74
2023/01/23 03:37:46;;;;;;;31.87;13.20;;;;;1.00;97367.00;;;;8345194;28;20194;-79
2023/01/23 03:41:48;;;;;;;31.53;13.00;;;;;0.90;97378.00;;;;8349149;28;20202;-77
2023/01/23 03:45:51;;;;;;;35.50;13.67;;;;;1.00;97384.00;;;;8349446;28;20200;-76
2023/01/23 03:49:56;;;;;;;30.17;13.17;;;;;1.00;97376.00;;;;8351230;28;20231;-76
2023/01/23 03:53:59;;;;;;;35.50;14.33;;;;;1.10;97383.00;;;;8351392;28;20204;-76
2023/01/23 03:58:02;;;;;;;44.43;15.20;;;;;1.10;97387.00;;;;8346879;28;20552;-76
2023/01/23 04:02:07;;;;;;;39.67;15.90;;;;;1.20;97410.00;;;;8352372;28;20198;-75
2023/01/23 04:06:13;;;;;;;36.90;14.70;;;;;1.30;97397.00;;;;8303631;28;20209;-77
2023/01/23 04:10:16;;;;;;;43.30;16.60;;;;;1.30;97392.00;;;;8331763;28;20282;-77
2023/01/23 04:14:25;;;;;;;43.50;17.80;;;;;1.30;97391.00;;;;8330557;28;20214;-74
2023/01/23 04:18:29;;;;;;;45.20;17.27;;;;;1.30;97402.00;;;;8329171;28;20202;-75
2023/01/23 04:22:34;;;;;;;42.47;16.20;;;;;1.20;97402.00;;;;8337672;28;20244;-76
2023/01/23 04:26:37;;;;;;;41.40;15.00;;;;;1.20;97402.00;;;;8335528;28;20203;-77
2023/01/23 04:30:40;;;;;;;42.67;13.73;;;;;1.20;97401.00;;;;8336213;28;20702;-76
2023/01/23 04:34:45;;;;;;;40.77;15.60;;;;;1.20;97399.00;;;;8342648;28;20203;-75
2023/01/23 04:38:49;;;;;;;45.93;18.43;;;;;1.30;97399.00;;;;8339042;28;20205;-75
2023/01/23 04:42:52;;;;;;;41.73;16.00;;;;;1.30;97397.00;;;;8343115;28;20233;-77
2023/01/23 04:46:55;;;;;;;38.33;13.37;;;;;1.20;97395.00;;;;8316831;28;20214;-78
2023/01/23 04:50:58;;;;;;;42.13;17.17;;;;;1.20;97397.00;;;;8329960;28;20280;-78
2023/01/23 04:55:06;;;;;;;43.63;16.50;;;;;1.20;97401.00;;;;8334191;28;20254;-74
2023/01/23 04:59:09;;;;;;;39.93;14.70;;;;;1.10;97392.00;;;;8334613;28;20193;-76
2023/01/23 05:03:12;;;;;;;48.90;16.83;;;;;1.20;97402.00;;;;8337783;28;20225;-78
2023/01/23 05:07:18;;;;;;;42.17;15.17;;;;;1.20;97400.00;;;;8331635;28;20965;-77
2023/01/23 05:11:23;;;;;;;43.27;16.03;;;;;1.20;97405.00;;;;8333820;28;20234;-77
2023/01/23 05:20:09;;;;;;;38.83;14.10;;;;;1.20;97421.00;;;;8338603;28;20265;-74
2023/01/23 05:24:13;;;;;;;41.67;14.90;;;;;1.20;97420.00;;;;8342219;28;20239;-75
2023/01/23 05:28:17;;;;;;;40.93;14.53;;;;;1.20;97422.00;;;;8338901;28;20217;-74
2023/01/23 05:32:20;;;;;;;38.17;13.60;;;;;1.20;97424.00;;;;8340516;28;20230;-74
2023/01/23 05:36:25;;;;;;;42.80;16.10;;;;;1.30;97426.00;;;;8341524;28;20661;-76
2023/01/23 05:40:28;;;;;;;37.00;15.67;;;;;1.20;97434.00;;;;8339908;28;20194;-76
2023/01/23 05:44:32;;;;;;;34.27;13.33;;;;;1.20;97432.00;;;;8341122;28;20256;-75
2023/01/23 05:48:35;;;;;;;37.80;14.97;;;;;1.20;97436.00;;;;8343776;28;20205;-75
2023/01/23 05:52:38;;;;;;;40.63;16.63;;;;;1.10;97442.00;;;;8328871;28;20320;-75
2023/01/23 05:56:41;;;;;;;39.67;15.90;;;;;1.10;97447.00;;;;8323080;28;20202;-76
2023/01/23 06:00:46;;;;;;;39.67;14.80;;;;;1.10;97455.00;;;;8344557;28;20225;-73
2023/01/23 06:04:57;;;;;;;43.40;16.00;;;;;1.10;97463.00;;;;8341442;28;20234;-75
2023/01/23 06:09:02;;;;;;;42.57;15.97;;;;;1.10;97474.00;;;;8339328;28;20210;-75
2023/01/23 06:13:07;;;;;;;39.97;14.73;;;;;1.10;97484.00;;;;8339257;28;20235;-75
2023/01/23 06:17:12;;;;;;;33.70;11.93;;;;;1.20;97495.00;;;;8338933;28;20237;-76
2023/01/23 06:21:18;;;;;;;37.90;15.00;;;;;1.20;97494.00;;;;8334936;28;20259;-76
2023/01/23 06:25:23;;;;;;;40.00;16.47;;;;;1.20;97492.00;;;;8339063;28;20210;-75
2023/01/23 06:29:26;;;;;;;46.23;16.57;;;;;1.30;97495.00;;;;8335456;28;20859;-76
2023/01/23 06:33:31;;;;;;;37.93;15.63;;;;;1.20;97509.00;;;;8334265;28;20867;-74
2023/01/23 06:37:33;;;;;;;37.07;15.70;;;;;1.20;97499.00;;;;8338917;28;20207;-74
2023/01/23 06:41:36;;;;;;;38.93;16.43;;;;;1.10;97509.00;;;;8335256;28;20749;-75
2023/01/23 06:45:39;;;;;;;37.67;14.07;;;;;1.20;97519.00;;;;8331747;28;20297;-75
2023/01/23 06:49:46;;;;;;;37.60;16.10;;;;;1.20;97512.00;;;;8330418;28;20267;-76
2023/01/23 06:53:48;;;;;;;32.07;12.90;;;;;1.20;97518.00;;;;8328980;28;20613;-74
2023/01/23 06:57:53;;;;;;;37.10;13.90;;;;;1.20;97525.00;;;;8329727;28;20200;-73
2023/01/23 07:02:05;;;;;;;41.47;15.73;;;;;1.10;97527.00;;;;8330212;28;20546;-73
2023/01/23 07:06:10;;;;;;;40.07;14.70;;;;;1.10;97535.00;;;;8309433;28;20627;-73
2023/01/23 07:10:13;;;;;;;41.40;15.70;;;;;1.10;97548.00;;;;8328294;28;20228;-73
2023/01/23 07:14:16;;;;;;;47.23;17.17;;;;;1.10;97540.00;;;;8324104;28;20267;-72
2023/01/23 07:18:19;;;;;;;47.80;16.07;;;;;1.10;97526.00;;;;8327291;28;20198;-73
2023/01/23 07:22:23;;;;;;;46.67;16.17;;;;;1.20;97539.00;;;;8312510;28;20543;-73
2023/01/23 07:26:27;;;;;;;44.03;15.07;;;;;1.20;97531.00;;;;8329858;28;20228;-73
2023/01/23 07:30:33;;;;;;;45.60;17.17;;;;;1.20;97533.00;;;;8330420;28;20221;-73
2023/01/23 07:34:36;;;;;;;50.53;17.17;;;;;1.30;97535.00;;;;8313642;28;20187;-73
2023/01/23 07:38:44;;;;;;;41.20;15.33;;;;;1.30;97531.00;;;;8331915;28;20197;-73
2023/01/23 07:42:54;;;;;;;44.37;17.97;;;;;1.40;97521.00;;;;8331868;28;20197;-73
2023/01/23 07:46:57;;;;;;;43.77;14.57;;;;;1.50;97526.00;;;;8330006;28;20202;-75
2023/01/23 07:51:02;;;;;;;46.53;18.07;;;;;1.50;97534.00;;;;8330548;28;20225;-76
2023/01/23 07:55:07;;;;;;;39.47;15.63;;;;;1.60;97539.00;;;;8331668;28;20194;-76
2023/01/23 07:59:11;;;;;;;35.70;14.00;;;;;1.60;97549.00;;;;8331393;28;20246;-74
2023/01/23 08:03:14;;;;;;;46.47;16.83;;;;;1.70;97546.00;;;;8329666;28;20234;-73
2023/01/23 08:07:17;;;;;;;47.37;17.10;;;;;1.70;97553.00;;;;8329178;28;20198;-74
2023/01/23 08:11:25;;;;;;;39.47;14.97;;;;;1.80;97542.00;;;;8330867;28;20223;-75
2023/01/23 08:15:32;;;;;;;40.00;16.30;;;;;1.80;97544.00;;;;8334311;28;20228;-75
2023/01/23 08:19:35;;;;;;;46.13;16.50;;;;;1.80;97558.00;;;;8320970;28;20264;-75
2023/01/23 08:23:39;;;;;;;39.73;14.77;;;;;2.00;97564.00;;;;8337298;28;20225;-74
2023/01/23 08:27:44;;;;;;;44.87;16.60;;;;;2.00;97574.00;;;;8337039;28;20198;-75
2023/01/23 08:31:50;;;;;;;39.47;16.20;;;;;2.10;97577.00;;;;8318661;28;20221;-75
2023/01/23 08:35:56;;;;;;;36.83;16.30;;;;;2.10;97573.00;;;;8335832;28;20584;-75
2023/01/23 08:40:06;;;;;;;37.63;15.70;;;;;2.30;97563.00;;;;8337330;28;20527;-75
2023/01/23 08:44:11;;;;;;;35.30;15.07;;;;;2.40;97568.00;;;;8319833;28;20193;-73
2023/01/23 08:48:15;;;;;;;37.40;14.97;;;;;2.50;97577.00;;;;8336730;28;20194;-73
2023/01/23 08:52:19;;;;;;;32.17;12.43;;;;;2.40;97564.00;;;;8337631;28;20224;-74
2023/01/23 08:56:27;;;;;;;39.47;15.47;;;;;2.40;97570.00;;;;8337786;28;20191;-73
2023/01/23 09:00:36;;;;;;;30.33;13.43;;;;;2.40;97570.00;;;;8337127;28;20203;-73
2023/01/23 09:04:42;;;;;;;36.40;13.67;;;;;2.40;97570.00;;;;8337466;28;20732;-73
2023/01/23 09:08:46;;;;;;;34.27;14.90;;;;;2.40;97576.00;;;;8336311;28;20196;-75
2023/01/23 09:12:50;;;;;;;35.50;13.60;;;;;2.50;97578.00;;;;8336979;28;20674;-74
2023/01/23 09:16:57;;;;;;;32.17;14.27;;;;;2.50;97575.00;;;;8335832;28;20203;-73
2023/01/23 09:21:05;;;;;;;37.60;15.30;;;;;2.50;97583.00;;;;8335739;28;20199;-72
2023/01/23 09:25:13;;;;;;;27.53;12.67;;;;;2.70;97579.00;;;;8336039;28;20223;-71
2023/01/23 09:29:16;;;;;;;28.27;11.07;;;;;2.80;97568.00;;;;8331332;28;20231;-69
2023/01/23 09:33:25;;;;;;;26.43;12.30;;;;;2.90;97574.00;;;;8331950;28;20331;-69
2023/01/23 09:37:58;;;;;;;24.23;10.73;;;;;2.80;97569.00;;;;8318686;28;20195;-68
2023/01/23 09:42:06;;;;;;;29.73;12.37;;;;;2.80;97571.00;;;;8335266;28;20235;-68
2023/01/23 09:46:17;;;;;;;33.27;13.83;;;;;2.80;97571.00;;;;8334273;28;20739;-69
2023/01/23 09:50:31;;;;;;;25.83;12.77;;;;;2.70;97569.00;;;;8334167;28;20199;-68
2023/01/23 09:54:43;;;;;;;29.40;12.50;;;;;2.70;97557.00;;;;8335711;28;20187;-69
2023/01/23 09:58:59;;;;;;;31.07;13.37;;;;;2.70;97551.00;;;;8334820;28;20275;-70
2023/01/23 10:03:13;;;;;;;31.10;14.13;;;;;2.70;97566.00;;;;8333759;28;20225;-70
2023/01/23 10:07:42;;;;;;;25.77;10.80;;;;;2.80;97563.00;;;;8334856;28;20198;-70
2023/01/23 10:11:55;;;;;;;28.17;12.17;;;;;2.90;97550.00;;;;8335479;28;20219;-69
2023/01/23 10:16:18;;;;;;;25.87;12.30;;;;;2.90;97549.00;;;;8333183;28;20203;-69
2023/01/23 10:20:54;;;;;;;26.77;10.87;;;;;2.90;97550.00;;;;8333430;28;20192;-69
2023/01/23 10:25:11;;;;;;;26.87;11.73;;;;;2.80;97537.00;;;;8326071;28;20200;-69
2023/01/23 10:29:21;;;;;;;27.23;12.50;;;;;2.80;97537.00;;;;8332923;28;20236;-69
2023/01/23 10:33:33;;;;;;;26.87;12.27;;;;;2.90;97534.00;;;;8335532;28;20223;-69
2023/01/23 10:37:44;;;;;;;23.53;9.60;;;;;2.90;97537.00;;;;8333761;28;20197;-69
2023/01/23 10:41:49;;;;;;;19.93;9.10;;;;;3.00;97526.00;;;;8333184;28;20205;-69
2023/01/23 10:46:10;;;;;;;23.80;10.27;;;;;2.90;97536.00;;;;8332515;28;20565;-69
2023/01/23 10:50:14;;;;;;;20.97;10.83;;;;;3.00;97530.00;;;;8333957;28;20196;-69
2023/01/23 10:54:19;;;;;;;22.27;9.93;;;;;3.00;97522.00;;;;8333344;28;20221;-70
2023/01/23 10:58:39;;;;;;;24.97;11.30;;;;;3.20;97523.00;;;;8334258;28;20566;-69
2023/01/23 11:02:42;;;;;;;19.10;9.77;;;;;3.50;97517.00;;;;8316658;28;20224;-68
2023/01/23 11:07:01;;;;;;;19.77;9.77;;;;;3.70;97505.00;;;;8333814;28;20198;-71
2023/01/23 11:11:22;;;;;;;18.60;8.73;;;;;3.60;97490.00;;;;8332974;28;20189;-71
2023/01/23 11:15:28;;;;;;;21.93;10.43;;;;;3.50;97489.00;;;;8315867;28;20213;-71
2023/01/23 11:19:37;;;;;;;21.43;8.17;;;;;3.40;97480.00;;;;8336838;28;20605;-71
2023/01/23 11:23:46;;;;;;;20.40;9.97;;;;;3.50;97486.00;;;;8399395;28;20195;-70
2023/01/23 11:27:57;;;;;;;24.00;11.23;;;;;3.60;97467.00;;;;8398664;28;20655;-70
2023/01/23 11:32:11;;;;;;;19.13;9.23;;;;;3.50;97475.00;;;;8380034;28;20222;-69
2023/01/23 11:36:50;;;;;;;21.73;9.33;;;;;3.30;97460.00;;;;8398360;28;20276;-69
2023/01/23 11:40:56;;;;;;;19.60;10.53;;;;;3.30;97451.00;;;;8398615;28;20533;-69
2023/01/23 11:45:02;;;;;;;22.53;11.20;;;;;3.30;97440.00;;;;8398625;28;20555;-69
2023/01/23 11:49:33;;;;;;;26.10;11.33;;;;;3.40;97448.00;;;;8397457;28;20195;-69
2023/01/23 11:53:48;;;;;;;19.33;9.10;;;;;3.60;97439.00;;;;8397491;28;20246;-69
2023/01/23 11:58:05;;;;;;;21.23;9.77;;;;;3.70;97435.00;;;;8397533;28;20202;-68
2023/01/23 12:02:48;;;;;;;22.37;9.90;;;;;3.60;97425.00;;;;8398410;28;20281;-69
2023/01/23 12:07:11;;;;;;;17.43;9.10;;;;;3.60;97427.00;;;;8395387;28;20279;-69
2023/01/23 12:11:19;;;;;;;18.43;9.53;;;;;3.80;97426.00;;;;8398476;28;20189;-69
2023/01/23 12:15:35;;;;;;;14.37;7.73;;;;;3.90;97432.00;;;;8397352;28;20486;-69
2023/01/23 12:19:51;;;;;;;17.63;9.13;;;;;4.00;97417.00;;;;8397361;28;20188;-69
2023/01/23 12:24:11;;;;;;;18.60;8.53;;;;;4.10;97418.00;;;;8397221;28;20206;-70
2023/01/23 12:28:32;;;;;;;16.50;8.87;;;;;4.20;97421.00;;;;8364419;28;20195;-71
2023/01/23 12:32:48;;;;;;;16.03;7.93;;;;;4.30;97424.00;;;;8379798;28;20579;-72
2023/01/23 12:37:14;;;;;;;18.57;9.33;;;;;4.00;97414.00;;;;8396819;28;20188;-73
2023/01/23 12:41:36;;;;;;;16.93;7.37;;;;;3.90;97405.00;;;;8398051;28;20187;-74
2023/01/23 12:45:48;;;;;;;19.53;8.87;;;;;4.00;97406.00;;;;8397476;28;20195;-73
2023/01/23 12:49:56;;;;;;;15.83;9.13;;;;;4.10;97398.00;;;;8397701;28;20557;-73
2023/01/23 12:54:06;;;;;;;12.97;7.93;;;;;4.20;97397.00;;;;8396584;28;20230;-74
2023/01/23 12:58:18;;;;;;;14.97;8.37;;;;;4.10;97391.00;;;;8397497;28;20633;-74
2023/01/23 13:02:35;;;;;;;14.40;7.43;;;;;3.90;97381.00;;;;8401316;28;20272;-74
2023/01/23 13:06:55;;;;;;;17.53;8.97;;;;;3.80;97380.00;;;;8399880;28;20182;-74
2023/01/23 13:15:34;;;;;;;18.97;10.40;;;;;3.80;97386.00;;;;8402304;28;20227;-74
2023/01/23 13:28:55;;;;;;;17.57;9.17;;;;;4.10;97397.00;;;;8403169;28;20243;-76
2023/01/23 13:33:18;;;;;;;19.50;10.13;;;;;4.20;97388.00;;;;8402034;28;20213;-77
2023/01/23 13:37:52;;;;;;;18.63;9.73;;;;;4.30;97391.00;;;;8384769;28;20525;-77
2023/01/23 13:42:37;;;;;;;16.87;9.60;;;;;4.20;97374.00;;;;8400894;28;20545;-77
2023/01/23 13:46:57;;;;;;;9.70;6.23;;;;;4.00;97374.00;;;;8364042;28;20223;-78
2023/01/23 13:51:22;;;;;;;17.77;7.73;;;;;3.90;97373.00;;;;8234683;28;20222;-77
2023/01/23 14:00:20;;;;;;;13.00;7.30;;;;;3.80;97392.00;;;;8015577;29;20296;-77
2023/01/23 14:09:22;;;;;;;15.10;8.07;;;;;3.80;97384.00;;;;7864642;30;20350;-77
2023/01/23 14:13:46;;;;;;;15.87;8.33;;;;;3.80;97376.00;;;;7868584;29;20733;-79
2023/01/23 14:18:04;;;;;;;13.83;8.00;;;;;3.80;97391.00;;;;7919619;29;20305;-79
2023/01/23 14:22:22;;;;;;;19.03;8.37;;;;;3.80;97403.00;;;;7998646;29;20828;-78
2023/01/23 14:26:31;;;;;;;16.13;9.00;;;;;3.70;97389.00;;;;8107847;29;20205;-78
2023/01/23 14:30:36;;;;;;;10.27;7.13;;;;;3.70;97389.00;;;;8116805;29;20326;-78
2023/01/23 14:34:39;;;;;;;15.30;8.80;;;;;3.60;97396.00;;;;8199488;29;20223;-78
2023/01/23 14:38:45;;;;;;;19.60;9.77;;;;;3.50;97404.00;;;;8255053;28;20200;-79
2023/01/23 14:42:57;;;;;;;15.47;8.07;;;;;3.40;97388.00;;;;8264566;28;20205;-79
2023/01/23 14:47:02;;;;;;;20.80;9.90;;;;;3.30;97397.00;;;;8366384;28;20196;-80
2023/01/23 14:51:17;;;;;;;19.40;10.67;;;;;3.30;97401.00;;;;8400372;28;20226;-79
2023/01/23 14:55:24;;;;;;;22.20;10.50;;;;;3.20;97398.00;;;;8399528;28;20217;-80
2023/01/23 14:59:36;;;;;;;21.43;10.53;;;;;3.20;97402.00;;;;8398754;28;20231;-79
2023/01/23 15:03:44;;;;;;;21.60;10.43;;;;;3.20;97409.00;;;;8400244;28;20594;-78
2023/01/23 15:07:53;;;;;;;20.70;10.53;;;;;3.30;97422.00;;;;8398512;28;20190;-80
2023/01/23 15:12:05;;;;;;;33.13;13.70;;;;;3.20;97426.00;;;;8398995;28;20600;-81
2023/01/23 15:16:20;;;;;;;23.67;11.43;;;;;3.20;97434.00;;;;8398525;28;20214;-81
2023/01/23 15:20:35;;;;;;;26.50;12.77;;;;;3.20;97436.00;;;;8398756;28;20257;-82
2023/01/23 15:24:38;;;;;;;25.23;12.23;;;;;3.10;97431.00;;;;8380414;28;20586;-82
2023/01/23 15:28:50;;;;;;;25.07;11.93;;;;;3.20;97419.00;;;;8400301;28;20534;-82
2023/01/23 15:32:57;;;;;;;26.97;12.23;;;;;3.10;97419.00;;;;8398990;28;20220;-82
2023/01/23 15:37:06;;;;;;;21.73;10.57;;;;;3.10;97425.00;;;;8397954;28;20180;-81
2023/01/23 15:41:13;;;;;;;25.20;12.20;;;;;3.00;97428.00;;;;8399111;28;20229;-81
2023/01/23 15:45:23;;;;;;;21.43;9.47;;;;;3.00;97415.00;;;;8397889;28;20178;-82
2023/01/23 15:49:27;;;;;;;15.67;8.73;;;;;2.90;97400.00;;;;8397591;28;20198;-81
2023/01/23 15:53:32;;;;;;;18.83;9.33;;;;;2.80;97416.00;;;;8398665;28;20226;-82
2023/01/23 15:57:35;;;;;;;19.63;8.77;;;;;2.80;97408.00;;;;8396912;28;20199;-82
2023/01/23 16:01:40;;;;;;;21.60;10.83;;;;;2.70;97402.00;;;;8394441;28;20244;-83
2023/01/23 16:05:49;;;;;;;18.53;9.13;;;;;2.70;97421.00;;;;8399032;28;20261;-78
2023/01/23 16:09:54;;;;;;;23.57;11.13;;;;;2.70;97420.00;;;;8397615;28;20680;-80
2023/01/23 16:13:59;;;;;;;19.53;10.13;;;;;2.80;97423.00;;;;8397364;28;20287;-80
2023/01/23 16:18:07;;;;;;;23.27;10.70;;;;;2.80;97427.00;;;;8395210;28;20203;-80
2023/01/23 16:22:17;;;;;;;18.90;9.53;;;;;2.80;97438.00;;;;8397407;28;20192;-80
2023/01/23 16:26:23;;;;;;;19.13;9.33;;;;;2.80;97444.00;;;;8397575;28;20194;-82
2023/01/23 16:30:29;;;;;;;27.37;13.00;;;;;2.80;97447.00;;;;8397587;28;20560;-81
2023/01/23 16:34:35;;;;;;;16.53;8.63;;;;;2.80;97453.00;;;;8397286;28;20667;-82
2023/01/23 16:38:43;;;;;;;22.13;11.17;;;;;2.80;97445.00;;;;8404030;28;20260;-82
2023/01/23 16:42:48;;;;;;;21.13;10.73;;;;;2.80;97447.00;;;;8403453;28;20203;-81
2023/01/23 16:46:56;;;;;;;20.47;9.23;;;;;2.80;97452.00;;;;8402203;28;20711;-82
2023/01/23 16:51:03;;;;;;;21.53;11.13;;;;;2.80;97450.00;;;;8403261;28;20226;-82
2023/01/23 16:55:19;;;;;;;29.33;13.67;;;;;2.70;97456.00;;;;8401851;28;20691;-85
2023/01/23 16:59:35;;;;;;;25.00;11.77;;;;;2.70;97469.00;;;;8401606;28;20205;-84
2023/01/23 17:03:41;;;;;;;23.40;11.53;;;;;2.70;97452.00;;;;8403346;28;20234;-80
2023/01/23 17:07:49;;;;;;;21.97;10.80;;;;;2.70;97453.00;;;;8403493;28;20207;-87
2023/01/23 17:11:58;;;;;;;24.27;11.37;;;;;2.70;97467.00;;;;8385469;28;20279;-91
2023/01/23 17:16:03;;;;;;;25.23;12.13;;;;;2.70;97464.00;;;;8385462;28;20762;-91
2023/01/23 17:20:17;;;;;;;25.53;12.10;;;;;2.70;97472.00;;;;8403989;28;20205;-90
2023/01/23 17:24:23;;;;;;;26.63;11.77;;;;;2.70;97476.00;;;;8402083;28;20198;-92
2023/01/23 17:28:29;;;;;;;24.97;12.13;;;;;2.70;97469.00;;;;8402639;28;20662;-91
2023/01/23 17:32:38;;;;;;;28.10;12.30;;;;;2.70;97477.00;;;;8402573;28;20321;-90
2023/01/23 17:36:41;;;;;;;26.97;12.37;;;;;2.70;97467.00;;;;8401310;28;20254;-92
2023/01/23 17:40:44;;;;;;;27.43;12.07;;;;;2.70;97478.00;;;;8402281;28;20201;-91
2023/01/23 17:44:54;;;;;;;32.03;13.10;;;;;2.70;97494.00;;;;8402051;28;20579;-91
2023/01/23 17:49:01;;;;;;;23.93;9.00;;;;;2.70;97489.00;;;;8401828;28;20195;-91
2023/01/23 17:53:04;;;;;;;23.53;11.73;;;;;2.70;97494.00;;;;8401993;28;20197;-90
2023/01/23 17:57:07;;;;;;;26.23;12.30;;;;;2.60;97492.00;;;;8401931;28;20665;-91
2023/01/23 18:01:25;;;;;;;30.27;13.20;;;;;2.60;97497.00;;;;8402286;28;20194;-89
2023/01/23 18:05:28;;;;;;;28.60;13.33;;;;;2.60;97518.00;;;;8401898;28;20611;-91
2023/01/23 18:09:36;;;;;;;25.43;11.60;;;;;2.60;97519.00;;;;8400933;28;20507;-84
2023/01/23 18:13:48;;;;;;;30.13;14.17;;;;;2.60;97528.00;;;;8400295;28;20246;-91
2023/01/23 18:18:08;;;;;;;26.80;11.87;;;;;2.60;97528.00;;;;8371992;28;20237;-88
2023/01/23 18:22:14;;;;;;;26.83;14.23;;;;;2.60;97526.00;;;;8368131;28;20191;-89
2023/01/23 18:26:30;;;;;;;26.23;13.77;;;;;2.60;97532.00;;;;8367608;28;20198;-88
2023/01/23 18:30:45;;;;;;;23.10;11.30;;;;;2.60;97529.00;;;;8366934;28;20349;-88
2023/01/23 18:34:58;;;;;;;20.37;9.57;;;;;2.60;97536.00;;;;8367681;28;20227;-89
2023/01/23 18:39:17;;;;;;;29.77;14.73;;;;;2.60;97517.00;;;;8363286;28;20568;-87
2023/01/23 18:43:32;;;;;;;16.13;9.13;;;;;2.60;97530.00;;;;8364911;28;20227;-88
2023/01/23 18:47:39;;;;;;;17.00;8.73;;;;;2.60;97537.00;;;;8367680;28;20282;-87
2023/01/23 18:51:47;;;;;;;28.10;13.53;;;;;2.60;97540.00;;;;8366619;28;20189;-88
2023/01/23 18:55:59;;;;;;;24.07;12.47;;;;;2.50;97543.00;;;;8367089;28;20269;-86
2023/01/23 19:00:13;;;;;;;25.07;10.93;;;;;2.50;97537.00;;;;8349010;28;20185;-86
2023/01/23 19:04:18;;;;;;;26.77;11.37;;;;;2.50;97531.00;;;;8367169;28;20293;-87
2023/01/23 19:08:29;;;;;;;32.87;13.30;;;;;2.60;97518.00;;;;8366038;28;20203;-89
2023/01/23 19:12:40;;;;;;;17.80;8.63;;;;;2.60;97533.00;;;;8365813;28;20205;-87
2023/01/23 19:16:49;;;;;;;34.87;11.53;;;;;2.50;97528.00;;;;8365652;28;20280;-90
2023/01/23 19:21:00;;;;;;;32.00;14.07;;;;;2.60;97547.00;;;;8365779;28;20225;-90
2023/01/23 19:25:14;;;;;;;24.87;11.93;;;;;2.50;97545.00;;;;8365284;28;20201;-90
2023/01/23 19:29:18;;;;;;;14.87;7.93;;;;;2.50;97545.00;;;;8365563;28;20553;-88
2023/01/23 19:33:27;;;;;;;22.17;9.93;;;;;2.50;97545.00;;;;8364964;28;20195;-88
2023/01/23 19:37:32;;;;;;;17.50;9.17;;;;;2.50;97558.00;;;;8331596;28;20214;-89
2023/01/23 19:41:41;;;;;;;29.07;11.70;;;;;2.50;97554.00;;;;8363822;28;20202;-91
2023/01/23 19:45:49;;;;;;;15.27;8.73;;;;;2.60;97547.00;;;;8364257;28;20694;-89
2023/01/23 19:49:54;;;;;;;15.57;8.40;;;;;2.60;97564.00;;;;8365619;28;20187;-85
2023/01/23 19:54:05;;;;;;;17.03;8.37;;;;;2.60;97559.00;;;;8365306;28;20197;-84
2023/01/23 19:58:11;;;;;;;24.93;11.13;;;;;2.60;97556.00;;;;8364870;28;20198;-86
2023/01/23 20:02:18;;;;;;;18.90;8.63;;;;;2.60;97561.00;;;;8364969;28;20573;-91
2023/01/23 20:06:24;;;;;;;23.53;11.03;;;;;2.70;97544.00;;;;8365073;28;20194;-91
2023/01/23 20:10:35;;;;;;;23.20;10.50;;;;;2.60;97547.00;;;;8370980;28;20239;-92
2023/01/23 20:14:41;;;;;;;16.87;7.23;;;;;2.70;97562.00;;;;8374978;28;20217;-93
2023/01/23 20:18:46;;;;;;;18.87;8.77;;;;;2.60;97559.00;;;;8375847;28;20193;-92
2023/01/23 20:22:50;;;;;;;27.43;10.30;;;;;2.60;97557.00;;;;8372032;28;20281;-92
2023/01/23 20:26:53;;;;;;;23.27;8.97;;;;;2.60;97553.00;;;;8374896;28;20628;-91
2023/01/23 20:31:08;;;;;;;16.97;8.93;;;;;2.70;97554.00;;;;8374022;28;20635;-91
2023/01/23 20:35:12;;;;;;;23.17;10.93;;;;;2.60;97553.00;;;;8375505;28;20221;-92
2023/01/23 20:39:15;;;;;;;14.43;8.30;;;;;2.70;97561.00;;;;8373847;28;20192;-89
2023/01/23 20:43:20;;;;;;;12.87;7.50;;;;;2.70;97553.00;;;;8375437;28;20592;-90
2023/01/23 20:47:29;;;;;;;24.17;12.20;;;;;2.70;97555.00;;;;8374862;28;20194;-90
2023/01/23 20:51:32;;;;;;;19.90;8.17;;;;;2.70;97552.00;;;;8374943;28;20638;-87
2023/01/23 20:55:35;;;;;;;18.87;9.50;;;;;2.70;97555.00;;;;8374635;28;20219;-89
2023/01/23 20:59:39;;;;;;;20.97;9.17;;;;;2.70;97561.00;;;;8357348;28;20203;-90
2023/01/23 21:03:54;;;;;;;20.03;10.07;;;;;2.70;97559.00;;;;8374773;28;20226;-92
2023/01/23 21:07:57;;;;;;;19.97;9.27;;;;;2.70;97558.00;;;;8374842;28;20193;-91
2023/01/23 21:12:04;;;;;;;15.63;8.13;;;;;2.80;97553.00;;;;8374876;28;20205;-92